Terminal Aerodrome Forecast
Issued by NWS

Current Version | Previous Version | Text Only | Print | Product List | Glossary On
Versions: 1 2 3 4 5 6 7 8 9 10 11 12 13 14
085
FTUS42 KGSP 102322
TAFAND
TAF
KAND 102322Z 1100/1124 27012KT P6SM SCT100
     FM110500 26006KT P6SM FEW080
     FM111200 22004KT P6SM FEW060
     FM111800 26006KT P6SM SCT060
     FM112300 20003KT P6SM SCT150=

USA.gov is the U.S. government's official web portal to all federal, state and local government web resources and services.